Brevator, Minnesota
Current Conditions -  °F | °C
As of 10:55 PM on Saturday 25 Oct 2014 (Local Time) from KDLH Reporting Station
Clear Clear  
Wind Chill: 35°   Ceiling: Unl
Heat Index: 40°   Visibility: 10mi
Dew Point: 26°   Wind: 7mph
Humidity: 58%   Direction: 280°W
Pressure: 29.97"   Gusts: NA
Location:  46.8859°N, 92.4258°W
Report Text: KDLH 260355Z 28006KT 10SM CLR 04/M03 A2997 RMK AO2 SLP161 T00441033
Loading
Personal Weather Stations






























Interactive Weather Map
Tropical Storm Tracking
New forecast layout! Learn more

10-Day Weather Forecast

Advertisements
Track Severe Weather on mobile